createdAt,value
2022-09-20T00:01:28.592Z,100002.61
2022-09-20T00:03:57.852Z,100004.56
2022-09-20T00:06:28.591Z,100003.69
2022-09-20T00:08:56.449Z,100010.34
2022-09-20T00:11:28.608Z,100013.31
2022-09-20T00:13:58.639Z,100014.17
2022-09-20T00:16:30.642Z,100016.80
2022-09-20T00:18:59.518Z,100019.98
2022-09-20T00:21:29.281Z,100021.56
2022-09-20T00:23:57.660Z,100020.17
2022-09-20T00:26:26.531Z,100020.88
2022-09-20T00:28:53.976Z,100021.06
2022-09-20T00:31:20.810Z,100022.80
2022-09-20T00:34:06.697Z,100026.84
2022-09-20T00:36:33.551Z,100026.67
2022-09-20T00:39:02.218Z,100027.55
2022-09-20T00:41:31.662Z,100026.33
2022-09-20T00:44:00.067Z,100023.55
2022-09-20T00:46:42.971Z,100023.71
2022-09-20T00:49:26.026Z,100023.70
2022-09-20T00:52:00.508Z,100024.24
2022-09-20T00:54:29.766Z,100026.88
2022-09-20T00:56:57.289Z,100023.21
2022-09-20T00:59:39.786Z,100026.55
2022-09-20T01:02:15.733Z,100027.24
2022-09-20T01:04:44.267Z,100028.65
2022-09-20T01:07:14.504Z,100030.41
2022-09-20T01:09:41.290Z,100034.27
2022-09-20T01:12:19.288Z,100034.98
2022-09-20T01:14:49.305Z,100033.75
2022-09-20T01:17:19.214Z,100035.85
2022-09-20T01:20:05.524Z,100036.92
2022-09-20T01:22:32.157Z,100045.85
2022-09-20T01:25:19.862Z,100050.75
2022-09-20T01:27:48.738Z,100054.61
2022-09-20T01:30:20.020Z,100053.04
2022-09-20T01:33:08.402Z,100044.63
2022-09-20T01:35:36.282Z,100041.48
2022-09-20T01:38:24.510Z,100028.71
2022-09-20T01:41:14.673Z,100014.71
2022-09-20T01:44:00.620Z,100005.96
2022-09-20T01:46:33.008Z,100012.96
2022-09-20T01:49:21.767Z,100009.27
2022-09-20T01:52:16.656Z,100012.06
2022-09-20T01:54:52.405Z,100017.85
2022-09-20T01:57:37.515Z,100023.80
2022-09-20T02:00:19.235Z,100023.98
2022-09-20T02:02:57.919Z,100025.71
2022-09-20T02:05:48.950Z,100026.40
2022-09-20T02:08:46.338Z,100030.95
2022-09-20T02:11:19.435Z,100032.17
2022-09-20T02:14:18.481Z,100033.06
2022-09-20T02:16:54.213Z,100029.73
2022-09-20T02:19:26.751Z,100030.61
2022-09-20T02:22:06.094Z,100032.70
2022-09-20T02:24:50.253Z,100033.58
2022-09-20T02:27:27.485Z,100034.80
2022-09-20T02:30:06.137Z,100035.16
2022-09-20T02:32:44.607Z,100035.88
2022-09-20T02:35:35.259Z,100037.98
2022-09-20T02:38:30.995Z,100038.67
2022-09-20T02:41:26.120Z,100042.52
2022-09-20T02:44:06.753Z,100044.27
2022-09-20T02:46:45.169Z,100044.98
2022-09-20T02:49:26.186Z,100052.52
2022-09-20T02:52:22.038Z,100049.36
2022-09-20T02:55:17.365Z,100058.29
2022-09-20T02:57:52.882Z,100060.73
2022-09-20T03:00:25.433Z,100066.17
2022-09-20T03:03:07.525Z,100064.77
2022-09-20T03:05:57.304Z,100068.10
2022-09-20T03:08:29.650Z,100070.21
2022-09-20T03:11:15.649Z,100072.66
2022-09-20T03:14:07.157Z,100071.10
2022-09-20T03:17:26.947Z,100071.62
2022-09-20T03:20:13.298Z,100071.09
2022-09-20T03:22:57.369Z,100073.02
2022-09-20T03:25:26.725Z,100077.05
2022-09-20T03:27:53.356Z,100081.95
2022-09-20T03:30:53.665Z,100084.38
2022-09-20T03:33:38.783Z,100083.69
2022-09-20T03:36:24.225Z,100089.64
2022-09-20T03:38:59.619Z,100092.26
2022-09-20T03:41:32.269Z,100090.33
2022-09-20T03:44:10.261Z,100088.05
2022-09-20T03:46:46.794Z,100093.83
2022-09-20T03:49:47.448Z,100094.89
2022-09-20T03:52:26.508Z,100093.83
2022-09-20T03:55:15.872Z,100097.51
2022-09-20T03:57:51.672Z,100099.95
2022-09-20T04:00:30.625Z,100099.77
2022-09-20T04:03:06.703Z,100102.02
2022-09-20T04:05:39.083Z,100102.00
2022-09-20T04:08:25.655Z,100106.02
2022-09-20T04:10:58.740Z,100113.02
2022-09-20T04:14:11.176Z,100118.09
2022-09-20T04:17:16.780Z,100116.52
2022-09-20T04:19:52.025Z,100117.74
2022-09-20T04:22:22.048Z,100130.67
2022-09-20T04:24:53.749Z,100131.55
2022-09-20T04:27:42.547Z,100140.98
2022-09-20T04:30:21.528Z,100144.83
2022-09-20T04:33:14.622Z,100150.42
2022-09-20T04:36:12.078Z,100141.86
2022-09-20T04:38:39.370Z,100142.20
2022-09-20T04:41:06.081Z,100143.27
2022-09-20T04:43:53.768Z,100138.89
2022-09-20T04:46:52.738Z,100135.92
2022-09-20T04:49:43.499Z,100135.04
2022-09-20T04:52:43.119Z,100140.81
2022-09-20T04:55:28.157Z,100148.52
2022-09-20T04:58:29.107Z,100150.63
2022-09-20T05:01:18.775Z,100152.20
2022-09-20T05:03:49.398Z,100146.59
2022-09-20T05:06:55.674Z,100147.99
2022-09-20T05:09:40.784Z,100147.81
2022-09-20T05:12:16.567Z,100151.15
2022-09-20T05:15:07.690Z,100160.41
2022-09-20T05:18:10.482Z,100163.04
2022-09-20T05:21:11.802Z,100165.48
2022-09-20T05:24:12.013Z,100166.36
2022-09-20T05:27:24.271Z,100170.04
2022-09-20T05:30:10.788Z,100175.80
2022-09-20T05:32:46.197Z,100179.13
2022-09-20T05:35:12.851Z,100188.40
2022-09-20T05:38:27.531Z,100190.33
2022-09-20T05:41:00.039Z,100198.02
2022-09-20T05:43:52.753Z,100199.77
2022-09-20T05:46:54.511Z,100210.09
2022-09-20T05:49:43.424Z,100214.46
2022-09-20T05:52:32.311Z,100216.40
2022-09-20T05:55:05.353Z,100220.45
2022-09-20T05:57:56.016Z,100224.65
2022-09-20T06:00:27.256Z,100226.26
2022-09-20T06:03:15.123Z,100223.29
2022-09-20T06:05:44.555Z,100228.90
2022-09-20T06:08:35.500Z,100230.12
2022-09-20T06:11:56.639Z,100232.75
2022-09-20T06:15:02.621Z,100242.39
2022-09-20T06:17:43.106Z,100248.51
2022-09-20T06:20:31.518Z,100247.81
2022-09-20T06:23:02.738Z,100251.48
2022-09-20T06:25:47.224Z,100250.62
2022-09-20T06:28:23.558Z,100249.94
2022-09-20T06:30:55.710Z,100250.11
2022-09-20T06:33:27.950Z,100250.46
2022-09-20T06:36:28.360Z,100249.61
2022-09-20T06:39:20.918Z,100248.39
2022-09-20T06:41:49.061Z,100245.05
2022-09-20T06:44:15.827Z,100242.27
2022-09-20T06:46:42.543Z,100231.06
2022-09-20T06:49:09.369Z,100230.54
2022-09-20T06:51:38.437Z,100232.82
2022-09-20T06:54:08.323Z,100227.58
2022-09-20T06:56:36.239Z,100229.50
2022-09-20T06:59:04.573Z,100227.56
2022-09-20T07:01:31.351Z,100223.38
2022-09-20T07:03:58.810Z,100229.48
2022-09-20T07:06:26.218Z,100233.87
2022-09-20T07:08:53.024Z,100238.95
2022-09-20T07:11:22.613Z,100241.23
2022-09-20T07:13:51.456Z,100251.05
2022-09-20T07:16:18.351Z,100252.08
2022-09-20T07:18:46.103Z,100254.55
2022-09-20T07:21:15.253Z,100258.57
2022-09-20T07:23:42.159Z,100261.02
2022-09-20T07:26:29.693Z,100263.30
2022-09-20T07:28:57.357Z,100264.16
2022-09-20T07:31:27.348Z,100269.77
2022-09-20T07:33:54.245Z,100283.09
2022-09-20T07:36:21.344Z,100288.17
2022-09-20T07:38:50.267Z,100292.19
2022-09-20T07:41:22.538Z,100304.28
2022-09-20T07:43:50.574Z,100310.95
2022-09-20T07:46:17.545Z,100312.34
2022-09-20T07:48:44.338Z,100320.58
2022-09-20T07:51:13.149Z,100322.86
2022-09-20T07:53:40.685Z,100329.52
2022-09-20T07:56:13.544Z,100329.88
2022-09-20T07:58:41.822Z,100330.21
2022-09-20T08:01:12.071Z,100329.16
2022-09-20T08:03:40.243Z,100324.23
2022-09-20T08:06:15.897Z,100329.85
2022-09-20T08:08:42.937Z,100330.39
2022-09-20T08:11:16.543Z,100332.85
2022-09-20T08:16:42.406Z,100342.66
2022-09-20T08:19:13.787Z,100343.17
2022-09-20T08:21:40.587Z,100346.84
2022-09-20T08:24:07.257Z,100352.45
2022-09-20T08:26:35.438Z,100354.18
2022-09-20T08:29:05.247Z,100359.26
2022-09-20T08:31:36.144Z,100363.27
2022-09-20T08:34:09.591Z,100363.79
2022-09-20T08:36:40.710Z,100366.05
2022-09-20T08:42:12.382Z,100365.83
2022-09-20T08:44:59.594Z,100359.67
2022-09-20T08:47:35.762Z,100359.48
2022-09-20T08:50:11.137Z,100359.48
2022-09-20T08:52:40.408Z,100356.65
2022-09-20T08:55:23.498Z,100367.53
2022-09-20T08:57:53.409Z,100368.03
2022-09-20T09:00:29.031Z,100376.44
2022-09-20T09:03:00.321Z,100386.45
2022-09-20T09:05:38.404Z,100385.05
2022-09-20T09:08:18.097Z,100387.36
2022-09-20T09:10:46.565Z,100388.27
2022-09-20T09:13:44.439Z,100389.54
2022-09-20T09:16:14.768Z,100382.18
2022-09-20T09:18:44.079Z,100383.23
2022-09-20T09:21:23.940Z,100382.15
2022-09-20T09:24:01.072Z,100390.58
2022-09-20T09:26:34.594Z,100392.70
2022-09-20T09:29:20.774Z,100390.09
2022-09-20T09:31:51.712Z,100391.31
2022-09-20T09:34:30.576Z,100394.29
2022-09-20T09:36:57.845Z,100392.71
2022-09-20T09:39:37.675Z,100392.01
2022-09-20T09:42:21.782Z,100395.33
2022-09-20T09:44:49.926Z,100393.55
2022-09-20T09:47:27.560Z,100394.63
2022-09-20T09:50:00.819Z,100391.11
2022-09-20T09:52:32.789Z,100393.75
2022-09-20T09:55:04.395Z,100391.63
2022-09-20T09:57:57.445Z,100394.07
2022-09-20T10:00:26.753Z,100392.63
2022-09-20T10:03:17.997Z,100389.98
2022-09-20T10:06:06.153Z,100385.39
2022-09-20T10:08:35.770Z,100386.27
2022-09-20T10:11:41.899Z,100385.88
2022-09-20T10:14:49.769Z,100385.67
2022-09-20T10:18:04.723Z,100390.02
2022-09-20T10:20:52.580Z,100391.06
2022-09-20T10:24:02.624Z,100390.19
2022-09-20T10:26:33.388Z,100388.23
2022-09-20T10:29:18.810Z,100388.77
2022-09-20T10:32:13.444Z,100392.27
2022-09-20T10:35:15.105Z,100396.80
2022-09-20T10:37:50.971Z,100398.38
2022-09-20T10:40:57.952Z,100400.98
2022-09-20T10:43:41.354Z,100403.59
2022-09-20T10:46:31.867Z,100402.17
2022-09-20T10:49:34.326Z,100407.06
2022-09-20T10:52:07.881Z,100410.21
2022-09-20T10:54:34.554Z,100411.27
2022-09-20T10:57:26.176Z,100411.46
2022-09-20T10:59:55.956Z,100416.73
2022-09-20T11:02:34.884Z,100417.45
2022-09-20T11:05:28.667Z,100418.50
2022-09-20T11:08:15.996Z,100422.38
2022-09-20T11:10:42.745Z,100425.19
2022-09-20T11:13:20.762Z,100427.98
2022-09-20T11:16:02.464Z,100431.83
2022-09-20T11:18:53.816Z,100432.48
2022-09-20T11:21:46.511Z,100435.45
2022-09-20T11:24:16.259Z,100427.15
2022-09-20T11:26:51.130Z,100429.23
2022-09-20T11:29:37.821Z,100427.52
2022-09-20T11:32:27.931Z,100428.04
2022-09-20T11:35:02.700Z,100429.63
2022-09-20T11:37:35.969Z,100431.70
2022-09-20T11:40:41.292Z,100430.98
2022-09-20T11:43:09.687Z,100424.25
2022-09-20T11:45:40.103Z,100425.98
2022-09-20T11:48:26.605Z,100427.35
2022-09-20T11:51:15.301Z,100426.45
2022-09-20T11:54:08.142Z,100430.99
2022-09-20T11:56:35.081Z,100432.90
2022-09-20T11:59:20.590Z,100435.33
2022-09-20T12:01:47.369Z,100437.20
2022-09-20T12:04:34.416Z,100438.38
2022-09-20T12:07:10.535Z,100438.66
2022-09-20T12:09:44.291Z,100436.67
2022-09-20T12:12:43.506Z,100435.73
2022-09-20T12:15:24.888Z,100436.48
2022-09-20T12:17:51.933Z,100430.88
2022-09-20T12:20:41.945Z,100435.68
2022-09-20T12:23:42.790Z,100431.83
2022-09-20T12:26:36.493Z,100442.48
2022-09-20T12:29:25.179Z,100447.83
2022-09-20T12:31:55.206Z,100449.52
2022-09-20T12:34:22.097Z,100450.86
2022-09-20T12:36:54.448Z,100452.89
2022-09-20T12:39:29.968Z,100457.88
2022-09-20T12:42:22.296Z,100460.59
2022-09-20T12:44:48.969Z,100458.40
2022-09-20T12:47:20.717Z,100463.23
2022-09-20T12:50:06.388Z,100465.61
2022-09-20T12:52:58.238Z,100469.20
2022-09-20T12:55:51.065Z,100467.67
2022-09-20T12:58:25.559Z,100465.59
2022-09-20T13:00:56.823Z,100464.70
2022-09-20T13:03:50.092Z,100466.42
2022-09-20T13:06:17.982Z,100473.02
2022-09-20T13:08:47.439Z,100471.17
2022-09-20T13:11:29.192Z,100480.95
2022-09-20T13:14:06.501Z,100481.80
2022-09-20T13:16:40.277Z,100494.86
2022-09-20T13:19:11.520Z,100489.85
2022-09-20T13:21:41.814Z,100485.16
2022-09-20T13:24:15.673Z,100482.38
2022-09-20T13:26:46.455Z,100482.01
2022-09-20T13:29:26.863Z,100480.90
2022-09-20T13:31:55.907Z,100484.02
2022-09-20T13:34:25.443Z,100487.70
2022-09-20T13:36:58.591Z,100482.92
2022-09-20T13:39:36.740Z,100487.85
2022-09-20T13:42:18.889Z,100496.13
2022-09-20T13:44:47.906Z,100498.30
2022-09-20T13:47:29.717Z,100503.27
2022-09-20T13:50:02.346Z,100505.96
2022-09-20T13:52:31.331Z,100508.83
2022-09-20T13:54:58.086Z,100507.80
2022-09-20T13:57:29.663Z,100512.39
2022-09-20T13:59:58.217Z,100515.73
2022-09-20T14:02:33.772Z,100516.63
2022-09-20T14:05:04.166Z,100519.64
2022-09-20T14:07:32.919Z,100522.46
2022-09-20T14:09:59.759Z,100521.45
2022-09-20T14:12:27.393Z,100515.89
2022-09-20T14:14:54.844Z,100522.27
2022-09-20T14:17:24.043Z,100521.58
2022-09-20T14:19:53.994Z,100520.90
2022-09-20T14:22:28.125Z,100514.59
2022-09-20T14:25:01.360Z,100520.58
2022-09-20T14:27:30.801Z,100521.80
2022-09-20T14:29:58.069Z,100521.81
2022-09-20T14:32:52.476Z,100519.36
2022-09-20T14:35:21.691Z,100522.16
2022-09-20T14:37:51.656Z,100523.38
2022-09-20T14:40:40.292Z,100522.15
2022-09-20T14:43:23.721Z,100529.01
2022-09-20T14:45:55.230Z,100522.65
2022-09-20T14:48:21.926Z,100531.79
2022-09-20T14:51:09.740Z,100528.27
2022-09-20T14:53:37.766Z,100535.65
2022-09-20T14:56:04.498Z,100542.15
2022-09-20T14:58:32.526Z,100545.14
2022-09-20T15:01:13.072Z,100544.28
2022-09-20T15:03:42.358Z,100540.79
2022-09-20T15:06:11.179Z,100542.38
2022-09-20T15:08:40.713Z,100542.90
2022-09-20T15:11:17.900Z,100545.90
2022-09-20T15:13:44.911Z,100541.67
2022-09-20T15:16:14.222Z,100543.79
2022-09-20T15:18:42.723Z,100547.13
2022-09-20T15:21:10.971Z,100547.69
2022-09-20T15:23:38.967Z,100547.00
2022-09-20T15:26:08.271Z,100549.30
2022-09-20T15:28:35.097Z,100549.81
2022-09-20T15:31:02.449Z,100551.05
2022-09-20T15:33:31.749Z,100552.80
2022-09-20T15:36:00.665Z,100552.79
2022-09-20T15:38:27.716Z,100556.84
2022-09-20T15:40:54.742Z,100559.14
2022-09-20T15:43:34.119Z,100555.27
2022-09-20T15:46:17.524Z,100560.00
2022-09-20T15:48:44.546Z,100559.67
2022-09-20T15:51:13.331Z,100563.54
2022-09-20T15:53:45.423Z,100566.52
2022-09-20T15:56:26.942Z,100572.17
2022-09-20T15:58:58.861Z,100577.98
2022-09-20T16:01:33.094Z,100584.84
2022-09-20T16:04:31.733Z,100584.48
2022-09-20T16:06:58.484Z,100583.44
2022-09-20T16:09:25.924Z,100586.27
2022-09-20T16:11:58.144Z,100586.61
2022-09-20T16:14:25.414Z,100592.05
2022-09-20T16:16:52.188Z,100595.05
2022-09-20T16:19:23.269Z,100596.30
2022-09-20T16:21:58.210Z,100599.46
2022-09-20T16:24:34.088Z,100599.63
2022-09-20T16:27:03.215Z,100605.96
2022-09-20T16:29:31.523Z,100605.77
2022-09-20T16:32:00.362Z,100613.70
2022-09-20T16:34:32.884Z,100618.79
2022-09-20T16:37:09.905Z,100625.46
2022-09-20T16:39:37.152Z,100632.48
2022-09-20T16:42:05.947Z,100634.41
2022-09-20T16:44:37.879Z,100637.23
2022-09-20T16:47:09.487Z,100640.22
2022-09-20T16:49:36.747Z,100644.96
2022-09-20T16:52:05.557Z,100648.29
2022-09-20T16:54:33.307Z,100653.76
2022-09-20T16:57:00.164Z,100657.42
2022-09-20T16:59:26.978Z,100664.11
2022-09-20T17:01:54.547Z,100663.58
2022-09-20T17:04:21.547Z,100663.58
2022-09-20T17:06:49.890Z,100661.11
2022-09-20T17:09:17.757Z,100663.76
2022-09-20T17:11:51.458Z,100662.67
2022-09-20T17:14:20.217Z,100664.42
2022-09-20T17:16:47.886Z,100665.48
2022-09-20T17:19:17.896Z,100672.16
2022-09-20T17:21:58.805Z,100676.91
2022-09-20T17:24:50.812Z,100677.42
2022-09-20T17:27:18.430Z,100685.14
2022-09-20T17:29:47.802Z,100693.20
2022-09-20T17:32:14.624Z,100693.56
2022-09-20T17:34:42.353Z,100693.55
2022-09-20T17:37:18.724Z,100698.29
2022-09-20T17:39:49.813Z,100700.91
2022-09-20T17:46:11.540Z,100700.05
2022-09-20T17:48:41.395Z,100710.22
2022-09-20T17:51:12.558Z,100707.77
2022-09-20T17:53:39.872Z,100716.54
2022-09-20T17:56:08.085Z,100718.11
2022-09-20T17:58:35.938Z,100722.51
2022-09-20T18:01:12.735Z,100726.00
2022-09-20T18:03:46.053Z,100725.29
2022-09-20T18:06:18.220Z,100735.98
2022-09-20T18:08:56.999Z,100732.28
2022-09-20T18:11:31.828Z,100731.73
2022-09-20T18:14:00.745Z,100735.77
2022-09-20T18:16:30.968Z,100737.69
2022-09-20T18:19:08.664Z,100743.65
2022-09-20T18:21:37.031Z,100746.45
2022-09-20T18:24:09.299Z,100748.52
2022-09-20T18:26:37.882Z,100753.27
2022-09-20T18:29:24.545Z,100754.46
2022-09-20T18:32:01.681Z,100759.36
2022-09-20T18:34:33.674Z,100758.82
2022-09-20T18:37:03.459Z,100764.06
2022-09-20T18:39:32.859Z,100772.44
2022-09-20T18:42:01.844Z,100772.96
2022-09-20T18:45:27.265Z,100777.67
2022-09-20T18:47:57.768Z,100781.88
2022-09-20T18:50:26.003Z,100782.39
2022-09-20T18:53:00.462Z,100784.14
2022-09-20T18:57:15.792Z,100784.13
2022-09-20T18:59:54.671Z,100788.33
2022-09-20T19:02:56.439Z,100786.73
2022-09-20T19:05:50.316Z,100788.81
2022-09-20T19:08:43.783Z,100797.40
2022-09-20T19:11:19.639Z,100799.69
2022-09-20T19:14:12.971Z,100799.84
2022-09-20T19:16:41.314Z,100799.30
2022-09-20T19:19:40.512Z,100799.98
2022-09-20T19:23:43.475Z,100799.98
2022-09-20T19:27:29.154Z,100804.35
2022-09-20T19:30:59.007Z,100805.54
2022-09-20T19:33:22.990Z,100812.70
2022-09-20T19:35:51.708Z,100808.32
2022-09-20T19:38:43.075Z,100810.39
2022-09-20T19:41:14.860Z,100813.55
2022-09-20T19:43:55.319Z,100817.55
2022-09-20T19:46:35.537Z,100822.09
2022-09-20T19:49:39.844Z,100824.69
2022-09-20T19:52:12.378Z,100833.94
2022-09-20T19:54:46.257Z,100836.04
2022-09-20T19:57:47.276Z,100836.75
2022-09-20T20:00:19.727Z,100837.09
2022-09-20T20:02:48.183Z,100834.64
2022-09-20T20:05:48.333Z,100831.08
2022-09-20T20:09:19.467Z,100831.26
2022-09-20T20:12:25.873Z,100828.98
2022-09-20T20:15:25.598Z,100831.44
2022-09-20T20:17:58.580Z,100831.08
2022-09-20T20:20:40.559Z,100833.17
2022-09-20T20:23:27.811Z,100835.62
2022-09-20T20:26:07.635Z,100836.84
2022-09-20T20:28:36.470Z,100838.44
2022-09-20T20:31:03.761Z,100834.42
2022-09-20T20:33:32.320Z,100838.97
2022-09-20T20:36:01.667Z,100837.75
2022-09-20T20:38:36.977Z,100839.48
2022-09-20T20:41:09.837Z,100844.38
2022-09-20T20:43:39.250Z,100847.17
2022-09-20T20:46:09.154Z,100849.30
2022-09-20T20:48:36.529Z,100854.21
2022-09-20T20:51:11.431Z,100855.42
2022-09-20T20:53:49.123Z,100860.66
2022-09-20T20:56:22.296Z,100859.75
2022-09-20T20:58:49.411Z,100859.55
2022-09-20T21:01:22.107Z,100864.29
2022-09-20T21:03:52.430Z,100866.74
2022-09-20T21:06:27.697Z,100867.63
2022-09-20T21:08:54.542Z,100868.11
2022-09-20T21:11:30.585Z,100874.23
2022-09-20T21:13:59.615Z,100877.53
2022-09-20T21:16:29.654Z,100884.69
2022-09-20T21:18:56.908Z,100881.35
2022-09-20T21:21:26.833Z,100883.08
2022-09-20T21:23:54.858Z,100882.55
2022-09-20T21:26:23.384Z,100890.41
2022-09-20T21:28:53.488Z,100890.56
2022-09-20T21:31:23.658Z,100892.50
2022-09-20T21:33:50.749Z,100896.85
2022-09-20T21:36:20.762Z,100893.86
2022-09-20T21:38:47.785Z,100892.47
2022-09-20T21:41:22.833Z,100897.20
2022-09-20T21:43:55.353Z,100902.63
2022-09-20T21:46:28.702Z,100905.73
2022-09-20T21:48:57.260Z,100907.27
2022-09-20T21:51:25.791Z,100904.81
2022-09-20T21:53:56.631Z,100906.73
2022-09-20T21:57:26.969Z,100911.63
2022-09-20T21:59:53.836Z,100906.52
2022-09-20T22:02:35.174Z,100912.80
2022-09-20T22:05:02.515Z,100909.97
2022-09-20T22:07:30.037Z,100908.39
2022-09-20T22:09:56.811Z,100917.33
2022-09-20T22:12:24.285Z,100913.30
2022-09-20T22:14:51.143Z,100911.71
2022-09-20T22:25:07.946Z,100914.59
2022-09-20T22:27:37.838Z,100911.44
2022-09-20T22:30:07.056Z,100918.15
2022-09-20T22:32:34.048Z,100919.74
2022-09-20T22:35:00.979Z,100916.23
2022-09-20T22:37:28.788Z,100919.19
2022-09-20T22:39:55.536Z,100920.75
2022-09-20T22:43:41.395Z,100916.91
2022-09-20T22:46:17.888Z,100919.04
2022-09-20T22:48:45.415Z,100917.64
2022-09-20T22:51:21.336Z,100915.01
2022-09-20T22:53:49.540Z,100917.42
2022-09-20T22:56:23.660Z,100920.92
2022-09-20T22:58:52.953Z,100917.77
2022-09-20T23:01:22.472Z,100926.21
2022-09-20T23:03:58.477Z,100924.66
2022-09-20T23:06:29.313Z,100928.35
2022-09-20T23:08:59.119Z,100930.45
2022-09-20T23:11:26.155Z,100931.33
2022-09-20T23:13:58.482Z,100931.85
2022-09-20T23:16:28.913Z,100935.92
2022-09-20T23:18:57.448Z,100935.92
2022-09-20T23:21:24.683Z,100939.41
2022-09-20T23:23:58.268Z,100939.23
2022-09-20T23:26:27.195Z,100938.01
2022-09-20T23:28:57.027Z,100933.64
2022-09-20T23:31:24.872Z,100933.13
2022-09-20T23:33:57.131Z,100930.02
2022-09-20T23:36:25.716Z,100927.91
2022-09-20T23:38:52.553Z,100929.30
2022-09-20T23:41:22.991Z,100926.15
2022-09-20T23:43:50.106Z,100924.57
2022-09-20T23:46:18.727Z,100923.17
2022-09-20T23:48:46.001Z,100924.77
2022-09-20T23:51:15.380Z,100930.20
2022-09-20T23:53:42.687Z,100929.69
2022-09-20T23:56:10.348Z,100925.84
2022-09-20T23:58:39.199Z,100926.55
